Time;durP1;ratioP1;P1;durP2;ratioP2;P2;SDS_P1;SDS_P2;PMS_P1;PMS_P2;Temp;Humidity;BMP_temperature;BMP_pressure;BME280_temperature;BME280_humidity;BME280_pressure;Samples;Min_cycle;Max_cycle;Signal;HPM_P1;HPM_P2
2022/10/29 00:01:27;;;;;;;10.73;3.30;;;;;;;;;;5096297;28;20448;-82
2022/10/29 00:03:55;;;;;;;11.30;4.00;;;15.60;99.90;;;;;;5096231;28;20451;-81
2022/10/29 00:06:21;;;;;;;4.83;2.90;;;15.70;99.90;;;;;;5096132;28;20465;-82
2022/10/29 00:08:48;;;;;;;6.93;3.30;;;;;;;;;;5095851;28;20445;-82
2022/10/29 00:11:18;;;;;;;13.97;4.30;;;15.30;99.90;;;;;;5094894;28;20449;-81
2022/10/29 00:13:45;;;;;;;11.40;3.83;;;15.20;99.90;;;;;;5096090;28;20456;-82
2022/10/29 00:16:14;;;;;;;13.30;3.87;;;14.90;99.90;;;;;;5095997;28;20495;-82
2022/10/29 00:18:41;;;;;;;6.90;3.60;;;;;;;;;;5096029;28;20943;-83
2022/10/29 00:21:13;;;;;;;6.90;3.67;;;15.40;99.90;;;;;;5095973;28;20444;-82
2022/10/29 00:23:40;;;;;;;10.60;3.90;;;;;;;;;;5095933;28;20825;-83
2022/10/29 00:26:07;;;;;;;6.80;3.50;;;14.50;99.90;;;;;;5095874;28;20532;-83
2022/10/29 00:28:35;;;;;;;6.80;3.30;;;;;;;;;;5094965;28;20437;-81
2022/10/29 00:31:06;;;;;;;7.70;4.10;;;14.30;99.90;;;;;;5095720;28;20816;-83
2022/10/29 00:33:33;;;;;;;6.93;3.53;;;14.20;99.90;;;;;;5095732;28;20451;-83
2022/10/29 00:36:03;;;;;;;8.33;3.20;;;14.10;99.90;;;;;;5095539;28;20496;-83
2022/10/29 00:38:32;;;;;;;9.43;3.57;;;14.00;99.90;;;;;;5095765;28;20472;-83
2022/10/29 00:40:59;;;;;;;5.87;2.97;;;14.10;99.90;;;;;;5095679;28;20468;-82
2022/10/29 00:43:27;;;;;;;9.37;3.43;;;13.90;99.90;;;;;;5094355;28;20957;-83
2022/10/29 00:45:57;;;;;;;9.90;3.27;;;14.00;99.90;;;;;;5095509;28;20455;-82
2022/10/29 00:48:26;;;;;;;7.43;3.37;;;14.00;99.90;;;;;;5095447;28;20456;-82
2022/10/29 00:50:54;;;;;;;5.57;3.60;;;14.00;99.90;;;;;;5095471;28;20449;-82
2022/10/29 00:53:26;;;;;;;5.10;3.20;;;13.80;99.90;;;;;;5095478;28;20459;-83
2022/10/29 00:55:55;;;;;;;11.33;3.77;;;12.90;99.90;;;;;;5095281;28;20507;-82
2022/10/29 00:58:22;;;;;;;18.93;3.57;;;;;;;;;;5092935;28;20448;-83
2022/10/29 01:00:49;;;;;;;7.30;3.20;;;;;;;;;;5095011;28;20452;-83
2022/10/29 01:03:16;;;;;;;7.20;2.93;;;13.60;99.90;;;;;;5095133;28;20457;-82
2022/10/29 01:05:44;;;;;;;8.47;3.60;;;13.50;99.90;;;;;;5094967;28;20445;-84
2022/10/29 01:08:11;;;;;;;10.90;4.53;;;13.40;99.90;;;;;;5094967;28;20456;-83
2022/10/29 01:10:51;;;;;;;7.13;3.50;;;13.60;99.90;;;;;;5094736;28;20480;-83
2022/10/29 01:13:41;;;;;;;7.40;3.17;;;13.20;99.90;;;;;;5093746;28;20441;-84
2022/10/29 01:16:17;;;;;;;9.70;3.27;;;13.40;99.90;;;;;;5094772;28;20488;-82
2022/10/29 01:18:49;;;;;;;9.43;3.77;;;13.40;99.90;;;;;;5094700;28;20455;-82
2022/10/29 01:21:37;;;;;;;7.03;3.60;;;13.50;99.90;;;;;;5094832;28;20449;-84
2022/10/29 01:24:44;;;;;;;6.57;3.50;;;13.60;99.90;;;;;;5094606;28;20444;-84
2022/10/29 01:27:40;;;;;;;5.50;2.87;;;13.50;99.90;;;;;;5082891;28;21295;-83
2022/10/29 01:30:16;;;;;;;7.37;3.23;;;13.30;99.90;;;;;;5094555;28;20437;-83
2022/10/29 01:32:54;;;;;;;5.57;3.20;;;13.40;99.90;;;;;;5094593;28;20805;-82
2022/10/29 01:35:30;;;;;;;6.97;3.50;;;13.40;99.90;;;;;;5094428;28;20480;-83
2022/10/29 01:38:08;;;;;;;9.83;3.93;;;13.40;99.90;;;;;;5094336;28;20541;-82
2022/10/29 01:40:40;;;;;;;7.30;3.70;;;12.80;99.90;;;;;;5094314;28;20484;-83
2022/10/29 01:43:11;;;;;;;6.47;3.63;;;13.40;99.90;;;;;;5093139;28;20448;-82
2022/10/29 01:45:45;;;;;;;6.90;3.50;;;12.90;99.90;;;;;;5094390;28;20444;-83
2022/10/29 01:48:17;;;;;;;4.90;2.93;;;13.40;99.90;;;;;;5094335;28;20449;-83
2022/10/29 01:50:49;;;;;;;9.73;3.87;;;13.00;99.90;;;;;;5094231;28;20836;-82
2022/10/29 01:53:17;;;;;;;6.83;3.53;;;13.50;99.90;;;;;;5093959;28;20449;-81
2022/10/29 01:55:44;;;;;;;5.13;2.97;;;;;;;;;;5093968;28;20495;-81
2022/10/29 01:58:11;;;;;;;5.47;3.70;;;;;;;;;;5092742;28;20950;-81
2022/10/29 02:00:49;;;;;;;10.50;3.80;;;12.80;99.90;;;;;;5093932;28;20444;-82
2022/10/29 02:03:32;;;;;;;9.03;3.50;;;13.50;99.90;;;;;;5093957;28;20456;-83
2022/10/29 02:06:10;;;;;;;10.40;3.87;;;13.30;99.90;;;;;;5093867;28;20456;-81
2022/10/29 02:08:44;;;;;;;14.70;3.77;;;12.80;99.90;;;;;;5093446;28;20440;-83
2022/10/29 02:11:15;;;;;;;8.77;4.20;;;13.50;99.90;;;;;;5093357;28;20452;-81
2022/10/29 02:13:50;;;;;;;12.30;4.23;;;13.30;99.90;;;;;;5093744;28;20445;-83
2022/10/29 02:16:17;;;;;;;8.27;3.90;;;13.50;99.90;;;;;;5093684;28;20828;-82
2022/10/29 02:18:47;;;;;;;9.40;3.87;;;13.40;99.90;;;;;;5093821;28;20452;-82
2022/10/29 02:21:15;;;;;;;12.03;4.17;;;13.20;99.90;;;;;;5093656;28;20470;-81
2022/10/29 02:23:43;;;;;;;9.90;4.60;;;;;;;;;;5093784;28;20494;-83
2022/10/29 02:26:10;;;;;;;7.70;3.90;;;;;;;;;;5093458;28;20457;-81
2022/10/29 02:28:37;;;;;;;8.47;4.03;;;;;;;;;;5092826;28;20448;-84
2022/10/29 02:31:04;;;;;;;7.30;4.30;;;;;;;;;;5093458;28;20445;-81
2022/10/29 02:33:31;;;;;;;8.27;3.57;;;;;;;;;;5093399;28;20452;-83
2022/10/29 02:35:59;;;;;;;10.07;3.63;;;13.50;99.90;;;;;;5093323;28;20496;-83
2022/10/29 02:38:27;;;;;;;6.27;3.87;;;;;;;;;;5093294;28;20467;-82
2022/10/29 02:40:54;;;;;;;11.00;3.90;;;;;;;;;;5093335;28;20448;-82
2022/10/29 02:43:21;;;;;;;6.73;4.27;;;;;;;;;;5091988;28;20523;-81
2022/10/29 02:45:49;;;;;;;6.93;3.43;;;13.70;99.90;;;;;;5093243;28;20448;-81
2022/10/29 02:48:16;;;;;;;14.67;4.33;;;13.70;99.90;;;;;;5093225;28;20457;-82
2022/10/29 02:50:43;;;;;;;6.53;3.70;;;;;;;;;;5093415;28;20452;-83
2022/10/29 02:53:11;;;;;;;6.80;4.00;;;13.50;99.90;;;;;;5093347;28;20445;-83
2022/10/29 02:55:38;;;;;;;8.50;4.00;;;13.50;99.90;;;;;;5093014;28;20488;-82
2022/10/29 02:58:05;;;;;;;5.80;3.30;;;;;;;;;;5091931;28;20460;-83
2022/10/29 03:00:32;;;;;;;6.50;4.07;;;;;;;;;;5093110;28;20463;-81
2022/10/29 03:02:59;;;;;;;12.97;3.93;;;;;;;;;;5093088;28;20530;-84
2022/10/29 03:05:26;;;;;;;11.20;5.30;;;;;;;;;;5093007;28;20448;-81
2022/10/29 03:07:53;;;;;;;7.87;3.93;;;;;;;;;;5093048;28;20436;-82
2022/10/29 03:10:21;;;;;;;6.57;4.00;;;13.50;99.90;;;;;;5092734;28;20891;-82
2022/10/29 03:12:48;;;;;;;6.70;4.47;;;14.20;99.90;;;;;;5091777;28;20929;-82
2022/10/29 03:15:15;;;;;;;12.13;4.90;;;14.30;99.90;;;;;;5092925;28;20452;-83
2022/10/29 03:17:42;;;;;;;7.90;4.13;;;14.00;99.90;;;;;;5092919;28;20441;-82
2022/10/29 03:20:09;;;;;;;13.63;5.20;;;14.20;99.90;;;;;;5092992;28;20453;-83
2022/10/29 03:22:37;;;;;;;12.83;4.60;;;;;;;;;;5096363;28;20947;-82
2022/10/29 03:25:04;;;;;;;7.33;4.00;;;14.20;99.90;;;;;;5097004;28;20449;-83
2022/10/29 03:27:32;;;;;;;9.63;4.17;;;13.80;99.90;;;;;;5095372;28;21004;-82
2022/10/29 03:29:59;;;;;;;8.90;4.33;;;;;;;;;;5097031;28;20444;-83
2022/10/29 03:32:26;;;;;;;9.47;4.40;;;;;;;;;;5097001;28;20448;-82
2022/10/29 03:34:53;;;;;;;7.00;4.17;;;;;;;;;;5096954;28;20456;-82
2022/10/29 03:37:20;;;;;;;7.13;4.37;;;;;;;;;;5096721;28;20491;-82
2022/10/29 03:39:47;;;;;;;8.27;3.70;;;13.80;99.90;;;;;;5096779;28;20494;-83
2022/10/29 03:42:13;;;;;;;10.00;3.80;;;13.70;99.90;;;;;;5095607;28;20452;-82
2022/10/29 03:44:42;;;;;;;5.47;3.73;;;13.90;99.90;;;;;;5096736;28;20451;-83
2022/10/29 03:47:08;;;;;;;9.40;4.37;;;13.80;99.90;;;;;;5096607;28;20448;-83
2022/10/29 03:49:35;;;;;;;10.63;4.20;;;;;;;;;;5096624;28;20505;-84
2022/10/29 03:52:02;;;;;;;9.50;3.83;;;14.10;99.90;;;;;;5096428;28;20448;-84
2022/10/29 03:54:29;;;;;;;12.93;4.50;;;;;;;;;;5096428;28;20440;-81
2022/10/29 03:56:56;;;;;;;12.50;4.27;;;13.90;99.90;;;;;;5095053;28;20853;-81
2022/10/29 03:59:23;;;;;;;5.50;4.30;;;13.60;99.90;;;;;;5096288;28;20939;-84
2022/10/29 04:01:51;;;;;;;10.60;4.80;;;13.60;99.90;;;;;;5096430;28;20449;-82
2022/10/29 04:04:18;;;;;;;7.10;4.57;;;14.00;99.90;;;;;;5096472;28;20546;-84
2022/10/29 04:06:44;;;;;;;6.97;3.73;;;14.10;99.90;;;;;;5096239;28;20455;-82
2022/10/29 04:09:11;;;;;;;4.60;3.70;;;;;;;;;;5096123;28;20480;-80
2022/10/29 04:11:38;;;;;;;6.90;4.30;;;13.50;99.90;;;;;;5094973;28;20475;-84
2022/10/29 04:14:05;;;;;;;10.90;3.80;;;;;;;;;;5096234;28;20471;-82
2022/10/29 04:16:32;;;;;;;10.43;4.40;;;13.60;99.90;;;;;;5096061;28;20850;-81
2022/10/29 04:19:00;;;;;;;7.70;4.43;;;13.80;99.90;;;;;;5096046;28;20451;-84
2022/10/29 04:21:27;;;;;;;6.23;3.93;;;;;;;;;;5096217;28;20451;-81
2022/10/29 04:23:54;;;;;;;9.97;4.43;;;13.90;99.90;;;;;;5096064;28;20449;-82
2022/10/29 04:26:21;;;;;;;7.67;3.87;;;;;;;;;;5094703;28;20452;-83
2022/10/29 04:28:48;;;;;;;10.10;3.60;;;13.30;99.90;;;;;;5095967;28;20465;-84
2022/10/29 04:31:16;;;;;;;10.63;4.20;;;;;;;;;;5095991;28;20453;-83
2022/10/29 04:33:43;;;;;;;7.50;3.80;;;;;;;;;;5095482;28;20451;-82
2022/10/29 04:36:11;;;;;;;8.13;3.93;;;13.30;99.90;;;;;;5095738;28;20487;-83
2022/10/29 04:38:38;;;;;;;8.40;3.87;;;;;;;;;;5095736;28;20452;-83
2022/10/29 04:41:05;;;;;;;7.00;4.43;;;13.20;99.90;;;;;;5096050;28;20449;-81
2022/10/29 04:43:32;;;;;;;7.90;4.60;;;13.50;99.90;;;;;;5094531;28;20452;-84
2022/10/29 04:45:59;;;;;;;6.83;4.37;;;13.60;99.90;;;;;;5095696;28;20460;-83
2022/10/29 04:48:27;;;;;;;7.50;3.77;;;13.40;99.90;;;;;;5095394;28;20453;-84
2022/10/29 04:50:54;;;;;;;7.27;4.13;;;;;;;;;;5095812;28;20448;-83
2022/10/29 04:53:22;;;;;;;6.67;4.20;;;13.10;99.90;;;;;;5095436;28;20460;-84
2022/10/29 04:55:50;;;;;;;10.87;5.13;;;;;;;;;;5095272;28;20448;-84
2022/10/29 04:58:18;;;;;;;10.33;4.20;;;13.20;99.90;;;;;;5094045;28;20946;-84
2022/10/29 05:00:46;;;;;;;8.07;4.60;;;13.10;99.90;;;;;;5095563;28;20453;-82
2022/10/29 05:03:13;;;;;;;9.00;4.80;;;;;;;;;;5095209;28;20943;-86
2022/10/29 05:05:40;;;;;;;6.17;4.33;;;;;;;;;;5095417;28;20448;-84
2022/10/29 05:08:08;;;;;;;7.93;4.00;;;;;;;;;;5095119;28;20447;-81
2022/10/29 05:10:37;;;;;;;14.63;4.10;;;12.90;99.90;;;;;;5095009;28;20483;-83
2022/10/29 05:13:06;;;;;;;11.40;4.43;;;12.90;99.90;;;;;;5094053;28;20452;-82
2022/10/29 05:15:34;;;;;;;9.30;4.07;;;12.90;99.90;;;;;;5095094;28;20516;-82
2022/10/29 05:18:01;;;;;;;5.37;3.90;;;;;;;;;;5095048;28;20488;-83
2022/10/29 05:20:28;;;;;;;8.17;4.40;;;12.80;99.90;;;;;;5094947;28;20460;-83
2022/10/29 05:22:59;;;;;;;9.30;4.10;;;12.60;99.90;;;;;;5094972;28;20472;-82
2022/10/29 05:25:26;;;;;;;6.20;3.00;;;;;;;;;;5094855;28;20513;-83
2022/10/29 05:28:01;;;;;;;11.07;4.77;;;12.80;99.90;;;;;;5093448;28;20479;-83
2022/10/29 05:30:29;;;;;;;7.43;3.97;;;;;;;;;;5094589;28;20935;-82
2022/10/29 05:32:56;;;;;;;6.60;3.87;;;;;;;;;;5094714;28;20448;-83
2022/10/29 05:35:23;;;;;;;8.57;5.07;;;;;;;;;;5094694;28;20932;-82
2022/10/29 05:37:53;;;;;;;8.43;4.50;;;13.40;99.90;;;;;;5094718;28;20491;-81
2022/10/29 05:40:20;;;;;;;10.40;5.07;;;;;;;;;;5094524;28;20445;-84
2022/10/29 05:42:47;;;;;;;17.00;5.57;;;;;;;;;;5093300;28;20444;-84
2022/10/29 05:45:16;;;;;;;13.73;5.87;;;13.10;99.90;;;;;;5093813;28;20453;-82
2022/10/29 05:47:44;;;;;;;12.43;6.00;;;;;;;;;;5093877;28;20804;-80
2022/10/29 05:50:11;;;;;;;19.80;8.93;;;;;;;;;;5094388;28;20453;-82
2022/10/29 05:52:38;;;;;;;20.33;6.40;;;13.10;99.90;;;;;;5094302;28;20449;-83
2022/10/29 05:55:06;;;;;;;25.83;6.10;;;12.80;99.90;;;;;;5094237;28;20449;-82
2022/10/29 05:57:33;;;;;;;9.23;5.20;;;;;;;;;;5093598;28;20499;-82
2022/10/29 06:00:00;;;;;;;17.17;5.13;;;;;;;;;;5094091;28;20928;-82
2022/10/29 06:02:28;;;;;;;14.10;6.10;;;12.90;99.90;;;;;;5094112;28;20811;-83
2022/10/29 06:04:55;;;;;;;14.90;5.43;;;;;;;;;;5093949;28;20449;-83
2022/10/29 06:07:22;;;;;;;12.23;5.50;;;;;;;;;;5094187;28;20456;-81
2022/10/29 06:09:49;;;;;;;12.83;5.40;;;;;;;;;;5093657;28;20476;-81
2022/10/29 06:12:16;;;;;;;12.83;5.17;;;;;;;;;;5092938;28;20445;-82
2022/10/29 06:14:43;;;;;;;11.20;6.10;;;;;;;;;;5094991;28;20453;-83
2022/10/29 06:17:11;;;;;;;17.90;5.83;;;;;;;;;;5094989;28;20488;-83
2022/10/29 06:19:39;;;;;;;10.43;6.20;;;12.60;99.90;;;;;;5097514;28;20451;-84
2022/10/29 06:22:06;;;;;;;11.33;5.07;;;;;;;;;;5118585;28;20500;-83
2022/10/29 06:24:33;;;;;;;8.70;5.07;;;;;;;;;;5107600;28;20444;-82
2022/10/29 06:27:00;;;;;;;18.40;4.43;;;;;;;;;;5093344;28;20479;-82
2022/10/29 06:29:27;;;;;;;8.80;5.40;;;;;;;;;;5093788;28;20449;-81
2022/10/29 06:31:54;;;;;;;10.73;5.03;;;;;;;;;;5093823;28;20444;-83
2022/10/29 06:34:21;;;;;;;7.73;5.20;;;;;;;;;;5093521;28;20935;-80
2022/10/29 06:36:49;;;;;;;10.40;5.70;;;12.60;99.90;;;;;;5093128;28;20500;-79
2022/10/29 06:39:16;;;;;;;12.57;5.80;;;;;;;;;;5093363;28;20456;-79
2022/10/29 06:41:43;;;;;;;8.00;5.27;;;;;;;;;;5092423;28;20476;-83
2022/10/29 06:44:10;;;;;;;9.27;5.43;;;;;;;;;;5093384;28;20452;-82
2022/10/29 06:46:38;;;;;;;16.23;5.20;;;;;;;;;;5093359;28;20464;-82
2022/10/29 06:49:05;;;;;;;9.60;4.43;;;12.70;99.90;;;;;;5083537;28;20792;-80
2022/10/29 06:51:32;;;;;;;21.40;6.53;;;;;;;;;;5072851;28;20964;-81
2022/10/29 06:54:00;;;;;;;9.00;5.13;;;12.90;99.90;;;;;;5073143;28;20453;-81
2022/10/29 06:56:27;;;;;;;8.80;4.90;;;;;;;;;;5071644;28;20456;-80
2022/10/29 06:58:54;;;;;;;10.43;5.10;;;12.80;99.90;;;;;;5072932;28;20460;-81
2022/10/29 07:01:21;;;;;;;6.67;5.00;;;;;;;;;;5072939;28;20454;-81
2022/10/29 07:03:49;;;;;;;11.03;4.80;;;13.10;99.90;;;;;;5073163;28;20540;-81
2022/10/29 07:06:16;;;;;;;7.23;4.77;;;;;;;;;;5073059;28;20464;-81
2022/10/29 07:08:43;;;;;;;10.93;6.50;;;12.90;99.90;;;;;;5071713;28;20593;-81
2022/10/29 07:11:11;;;;;;;12.03;5.53;;;13.60;99.90;;;;;;5072981;28;20450;-79
2022/10/29 07:13:38;;;;;;;8.63;5.30;;;;;;;;;;5072157;28;20445;-83
2022/10/29 07:16:06;;;;;;;9.87;6.30;;;14.20;99.90;;;;;;5072763;28;20452;-81
2022/10/29 07:18:33;;;;;;;16.93;8.30;;;;;;;;;;5072316;28;20827;-81
2022/10/29 07:21:01;;;;;;;8.73;5.33;;;14.70;99.90;;;;;;5072967;28;20454;-80
2022/10/29 07:23:28;;;;;;;11.10;5.23;;;;;;;;;;5072915;28;20952;-80
2022/10/29 07:25:55;;;;;;;7.77;4.90;;;15.80;99.90;;;;;;5072779;28;20453;-82
2022/10/29 07:28:24;;;;;;;9.57;4.60;;;16.10;99.90;;;;;;5071908;28;20454;-81
2022/10/29 07:30:52;;;;;;;9.40;5.40;;;16.10;99.90;;;;;;5073038;28;20450;-81
2022/10/29 07:33:19;;;;;;;9.47;4.43;;;;;;;;;;5072686;28;20453;-81
2022/10/29 07:35:46;;;;;;;10.43;4.70;;;;;;;;;;5072690;28;20948;-81
2022/10/29 07:38:13;;;;;;;6.20;4.33;;;;;;;;;;5070222;28;20493;-81
2022/10/29 07:40:46;;;;;;;11.87;4.40;;;17.20;99.90;;;;;;5072659;28;20452;-79
2022/10/29 07:43:13;;;;;;;9.90;4.37;;;;;;;;;;5071399;28;20450;-78
2022/10/29 07:45:42;;;;;;;7.47;3.90;;;18.00;99.90;;;;;;5072242;28;20449;-78
2022/10/29 07:48:10;;;;;;;9.30;4.50;;;;;;;;;;5079515;28;20455;-79
2022/10/29 07:50:38;;;;;;;8.63;4.13;;;18.40;99.90;;;;;;5092256;28;20816;-79
2022/10/29 07:53:06;;;;;;;9.70;4.50;;;18.90;99.90;;;;;;5092779;28;20448;-78
2022/10/29 07:55:33;;;;;;;9.03;3.47;;;;;;;;;;5092657;28;20441;-79
2022/10/29 07:58:01;;;;;;;11.53;4.17;;;19.40;98.30;;;;;;5091471;28;20492;-79
2022/10/29 08:00:28;;;;;;;11.43;4.67;;;19.60;99.90;;;;;;5087026;28;20448;-78
2022/10/29 08:02:57;;;;;;;7.70;3.60;;;19.90;99.90;;;;;;5072383;28;21219;-80
2022/10/29 08:05:24;;;;;;;5.67;3.90;;;;;;;;;;5072316;28;20450;-82
2022/10/29 08:07:53;;;;;;;9.70;4.20;;;20.00;99.90;;;;;;5073949;28;20446;-78
2022/10/29 08:10:20;;;;;;;6.40;4.63;;;;;;;;;;5075678;28;20477;-79
2022/10/29 08:12:50;;;;;;;12.70;4.37;;;21.00;95.20;;;;;;5074480;28;20461;-79
2022/10/29 08:15:17;;;;;;;6.90;3.67;;;;;;;;;;5075564;28;20537;-78
2022/10/29 08:17:44;;;;;;;8.30;4.30;;;;;;;;;;5075884;28;20485;-78
2022/10/29 08:20:13;;;;;;;7.47;3.63;;;21.70;92.60;;;;;;5075901;28;20456;-78
2022/10/29 08:22:41;;;;;;;9.07;3.97;;;;;;;;;;5075588;28;20785;-78
2022/10/29 08:25:08;;;;;;;15.00;4.00;;;22.70;99.90;;;;;;5075724;28;20459;-78
2022/10/29 08:27:35;;;;;;;8.97;3.87;;;;;;;;;;5074290;28;20833;-79
2022/10/29 08:30:02;;;;;;;10.43;3.60;;;;;;;;;;5075612;28;20446;-79
2022/10/29 08:32:29;;;;;;;8.93;4.00;;;;;;;;;;5075513;28;20446;-79
2022/10/29 08:34:56;;;;;;;5.33;3.57;;;23.50;99.90;;;;;;5075575;28;20456;-79
2022/10/29 08:37:24;;;;;;;10.40;4.43;;;22.90;97.20;;;;;;5075374;28;20508;-78
2022/10/29 08:39:51;;;;;;;6.60;3.90;;;;;;;;;;5075184;28;20454;-78
2022/10/29 08:42:33;;;;;;;10.60;4.03;;;22.30;99.90;;;;;;5073775;28;20446;-78
2022/10/29 08:45:19;;;;;;;5.80;3.67;;;22.90;98.50;;;;;;5074941;28;20434;-78
2022/10/29 08:48:12;;;;;;;6.53;3.90;;;23.60;86.30;;;;;;5077563;28;20454;-79
2022/10/29 08:50:44;;;;;;;11.10;4.00;;;24.10;86.80;;;;;;5074706;28;20449;-76
2022/10/29 08:53:17;;;;;;;5.33;3.37;;;23.90;84.60;;;;;;5075304;28;20449;-78
2022/10/29 08:55:46;;;;;;;7.93;2.97;;;24.30;83.20;;;;;;5075358;28;20457;-79
2022/10/29 08:58:23;;;;;;;8.43;3.63;;;24.50;83.80;;;;;;5089857;28;20493;-78
2022/10/29 09:00:54;;;;;;;4.50;3.20;;;24.70;99.60;;;;;;5084052;28;20476;-79
2022/10/29 09:03:21;;;;;;;4.53;3.00;;;;;;;;;;5075152;28;20449;-80
2022/10/29 09:05:53;;;;;;;8.87;3.20;;;25.30;80.30;;;;;;5075013;28;20817;-79
2022/10/29 09:08:37;;;;;;;9.73;4.07;;;25.00;79.90;;;;;;5074938;28;20456;-79
2022/10/29 09:11:17;;;;;;;9.47;4.17;;;25.10;80.00;;;;;;5074896;28;20535;-79
2022/10/29 09:13:51;;;;;;;6.70;3.43;;;24.90;78.60;;;;;;5075168;28;20453;-79
2022/10/29 09:16:31;;;;;;;6.40;2.90;;;25.10;79.40;;;;;;5075015;28;20450;-79
2022/10/29 09:19:13;;;;;;;7.10;3.47;;;25.70;77.20;;;;;;5073848;28;20500;-79
2022/10/29 09:21:50;;;;;;;19.13;4.70;;;25.70;77.00;;;;;;5074639;28;20473;-79
2022/10/29 09:24:27;;;;;;;14.20;5.07;;;25.70;76.00;;;;;;5074645;28;20445;-79
2022/10/29 09:26:58;;;;;;;7.73;3.50;;;25.90;75.60;;;;;;5073404;28;20448;-79
2022/10/29 09:29:56;;;;;;;16.50;3.60;;;26.30;74.60;;;;;;5074609;28;20914;-80
2022/10/29 09:32:25;;;;;;;7.90;3.80;;;26.70;72.90;;;;;;5074599;28;20454;-79
2022/10/29 09:34:56;;;;;;;6.70;4.43;;;26.60;74.10;;;;;;5074277;28;20446;-79
2022/10/29 09:37:29;;;;;;;7.60;3.17;;;26.30;74.10;;;;;;5074070;28;20492;-79
2022/10/29 09:40:00;;;;;;;9.30;3.80;;;26.20;74.30;;;;;;5073857;28;20450;-80
2022/10/29 09:42:34;;;;;;;12.43;3.67;;;25.90;75.20;;;;;;5072952;28;20473;-80
2022/10/29 09:45:03;;;;;;;5.93;3.83;;;25.80;75.90;;;;;;5074271;28;20468;-79
2022/10/29 09:47:43;;;;;;;6.00;3.70;;;26.30;78.10;;;;;;5074316;28;20476;-79
2022/10/29 09:50:19;;;;;;;10.30;4.90;;;27.00;97.50;;;;;;5074071;28;20469;-79
2022/10/29 09:52:48;;;;;;;8.80;3.53;;;26.80;73.20;;;;;;5073999;28;20464;-79
2022/10/29 09:55:25;;;;;;;12.70;4.60;;;27.30;73.10;;;;;;5073958;28;20450;-79
2022/10/29 09:57:52;;;;;;;8.20;4.43;;;;;;;;;;5072537;28;21023;-79
2022/10/29 10:00:22;;;;;;;7.47;3.30;;;27.60;69.60;;;;;;5073960;28;20892;-79
2022/10/29 10:02:54;;;;;;;9.70;4.20;;;27.70;71.00;;;;;;5073876;28;20446;-79
2022/10/29 10:05:25;;;;;;;9.73;3.50;;;27.70;69.60;;;;;;5073560;28;20446;-80
2022/10/29 10:08:07;;;;;;;9.73;3.60;;;27.90;68.80;;;;;;5073633;28;20457;-79
2022/10/29 10:10:38;;;;;;;7.30;2.57;;;27.70;68.20;;;;;;5073407;28;20473;-79
2022/10/29 10:13:06;;;;;;;8.20;3.00;;;27.40;68.20;;;;;;5072166;28;20442;-79
2022/10/29 10:15:34;;;;;;;8.53;3.33;;;27.40;65.90;;;;;;5073490;28;20454;-79
2022/10/29 10:18:03;;;;;;;7.67;2.87;;;28.20;65.00;;;;;;5073300;28;20511;-79
2022/10/29 10:20:36;;;;;;;6.83;3.67;;;28.10;64.30;;;;;;5073486;28;20453;-79
2022/10/29 10:23:28;;;;;;;4.60;2.90;;;29.00;61.20;;;;;;5073458;28;20442;-79
2022/10/29 10:25:58;;;;;;;4.10;2.93;;;27.20;63.90;;;;;;5073295;28;20449;-79
2022/10/29 10:28:28;;;;;;;4.80;2.20;;;27.40;62.30;;;;;;5072388;28;20930;-79
2022/10/29 10:31:08;;;;;;;8.57;2.70;;;25.90;67.00;;;;;;5073020;28;20445;-78
2022/10/29 10:33:37;;;;;;;6.63;2.57;;;26.30;65.50;;;;;;5073324;28;20460;-79
2022/10/29 10:36:06;;;;;;;7.50;2.70;;;26.70;63.70;;;;;;5073265;28;20511;-79
2022/10/29 10:38:41;;;;;;;7.70;2.67;;;26.40;65.10;;;;;;5073272;28;20500;-80
2022/10/29 10:41:12;;;;;;;7.47;2.90;;;25.90;66.40;;;;;;5073187;28;20444;-79
2022/10/29 10:43:43;;;;;;;8.73;3.40;;;25.90;67.60;;;;;;5071995;28;20446;-79
2022/10/29 10:46:15;;;;;;;5.90;2.47;;;26.70;64.80;;;;;;5073060;28;20449;-79
2022/10/29 10:48:42;;;;;;;7.63;3.20;;;;;;;;;;5073144;28;20453;-79
2022/10/29 10:51:24;;;;;;;7.87;2.33;;;27.10;64.00;;;;;;5073007;28;20486;-79
2022/10/29 10:53:51;;;;;;;6.00;2.13;;;;;;;;;;5073067;28;20441;-79
2022/10/29 10:56:21;;;;;;;3.03;2.63;;;27.00;65.00;;;;;;5072101;28;20484;-79
2022/10/29 10:58:58;;;;;;;9.90;3.20;;;26.70;68.80;;;;;;5072839;28;20496;-79
2022/10/29 11:01:29;;;;;;;9.00;2.80;;;26.10;68.10;;;;;;5073018;28;20456;-78
2022/10/29 11:04:02;;;;;;;5.97;2.57;;;26.40;64.10;;;;;;5072808;28;20449;-79
2022/10/29 11:06:35;;;;;;;4.70;2.70;;;27.00;63.60;;;;;;5072884;28;20454;-79
2022/10/29 11:09:08;;;;;;;9.80;2.90;;;27.00;63.20;;;;;;5072712;28;20477;-79
2022/10/29 11:11:40;;;;;;;13.43;5.37;;;27.10;62.00;;;;;;5071807;28;20450;-79
2022/10/29 11:14:12;;;;;;;9.90;2.53;;;26.70;63.80;;;;;;5072783;28;20459;-78
2022/10/29 11:16:45;;;;;;;4.93;2.60;;;27.10;63.10;;;;;;5072726;28;20824;-79
2022/10/29 11:19:20;;;;;;;5.90;2.93;;;27.50;61.60;;;;;;5072624;28;20488;-79
2022/10/29 11:21:59;;;;;;;9.93;2.87;;;27.80;60.90;;;;;;5072715;28;20452;-78
2022/10/29 11:24:36;;;;;;;7.27;3.30;;;27.20;62.70;;;;;;5072809;28;20449;-79
2022/10/29 11:27:13;;;;;;;5.13;2.83;;;28.00;60.20;;;;;;5071462;28;20441;-79
2022/10/29 11:29:47;;;;;;;7.00;3.20;;;27.80;60.50;;;;;;5072679;28;20445;-79
2022/10/29 11:32:19;;;;;;;6.40;3.23;;;27.90;60.60;;;;;;5072833;28;20940;-78
2022/10/29 11:34:54;;;;;;;11.63;3.53;;;27.60;60.90;;;;;;5072682;28;20458;-79
2022/10/29 11:37:29;;;;;;;5.30;3.13;;;27.40;59.80;;;;;;5072614;28;20456;-78
2022/10/29 11:40:01;;;;;;;5.10;2.43;;;27.80;59.30;;;;;;5072464;28;20499;-79
2022/10/29 11:42:30;;;;;;;5.10;2.40;;;27.70;60.20;;;;;;5072631;28;20452;-79
2022/10/29 11:44:58;;;;;;;4.40;2.37;;;27.10;57.70;;;;;;5076490;28;20449;-78
2022/10/29 11:47:43;;;;;;;6.37;2.13;;;27.20;56.60;;;;;;5076377;28;20944;-78
2022/10/29 11:50:20;;;;;;;6.93;3.13;;;27.50;57.00;;;;;;5076301;28;20555;-79
2022/10/29 11:52:57;;;;;;;5.67;2.80;;;27.30;55.10;;;;;;5076207;28;20801;-79
2022/10/29 11:55:33;;;;;;;9.97;2.60;;;27.20;79.20;;;;;;5076254;28;20480;-78
2022/10/29 11:58:10;;;;;;;5.60;2.67;;;27.20;54.40;;;;;;5074628;28;20445;-79
2022/10/29 12:00:51;;;;;;;8.30;3.47;;;27.10;53.50;;;;;;5076120;28;20451;-78
2022/10/29 12:03:41;;;;;;;6.93;1.97;;;27.50;54.90;;;;;;5076045;28;20944;-78
2022/10/29 12:06:16;;;;;;;7.77;2.53;;;27.20;79.10;;;;;;5076072;28;20453;-78
2022/10/29 12:08:58;;;;;;;5.60;2.80;;;27.20;53.80;;;;;;5075793;28;20453;-78
2022/10/29 12:11:33;;;;;;;8.30;2.73;;;27.30;54.00;;;;;;5074585;28;20453;-79
2022/10/29 12:14:13;;;;;;;9.10;2.57;;;27.30;53.60;;;;;;5075961;28;20471;-77
2022/10/29 12:16:48;;;;;;;8.37;3.73;;;27.10;53.50;;;;;;5075984;28;20835;-78
2022/10/29 12:19:28;;;;;;;9.73;3.57;;;27.20;55.10;;;;;;5075667;28;20495;-79
2022/10/29 12:22:05;;;;;;;6.20;3.47;;;27.60;53.30;;;;;;5075472;28;20449;-79
2022/10/29 12:24:46;;;;;;;6.80;3.23;;;27.60;53.60;;;;;;5075700;28;20445;-79
2022/10/29 12:27:19;;;;;;;7.07;2.87;;;27.70;53.80;;;;;;5074397;28;20803;-79
2022/10/29 12:29:54;;;;;;;5.83;2.27;;;27.70;53.20;;;;;;5075615;28;20442;-79
2022/10/29 12:32:25;;;;;;;9.47;2.73;;;27.50;54.50;;;;;;5075613;28;20457;-78
2022/10/29 12:35:01;;;;;;;6.80;2.83;;;27.30;88.00;;;;;;5075357;28;20465;-79
2022/10/29 12:37:38;;;;;;;6.97;2.53;;;27.50;90.90;;;;;;5075796;28;20483;-78
2022/10/29 12:40:15;;;;;;;8.90;3.10;;;27.10;79.70;;;;;;5075259;28;20492;-78
2022/10/29 12:42:43;;;;;;;4.33;2.20;;;;;;;;;;5074201;28;20458;-78
2022/10/29 12:45:27;;;;;;;8.93;2.43;;;27.40;52.60;;;;;;5075313;28;20450;-78
2022/10/29 12:48:05;;;;;;;5.00;2.30;;;27.40;53.20;;;;;;5075509;28;20455;-79
2022/10/29 12:50:43;;;;;;;6.00;2.43;;;27.50;53.90;;;;;;5075145;28;20453;-79
2022/10/29 12:53:17;;;;;;;7.30;3.17;;;29.20;55.70;;;;;;5075031;28;20442;-79
2022/10/29 12:55:45;;;;;;;6.80;2.90;;;27.20;82.70;;;;;;5075154;28;20449;-78
2022/10/29 12:58:48;;;;;;;4.05;2.30;;;27.00;91.70;;;;;;5072484;28;20452;-79
2022/10/29 13:01:45;;;;;;;7.67;2.60;;;26.90;79.40;;;;;;5074968;28;20445;-79
2022/10/29 13:04:26;;;;;;;7.83;3.10;;;27.00;90.90;;;;;;5074951;28;20445;-79
2022/10/29 13:06:59;;;;;;;3.63;2.10;;;27.20;84.20;;;;;;5074849;28;20450;-79
2022/10/29 13:09:28;;;;;;;5.27;2.87;;;27.00;54.20;;;;;;5074691;28;20480;-78
2022/10/29 13:11:56;;;;;;;6.10;2.70;;;26.90;54.10;;;;;;5073718;28;20450;-78
2022/10/29 13:14:27;;;;;;;7.87;2.57;;;26.90;54.10;;;;;;5074701;28;20450;-79
2022/10/29 13:16:56;;;;;;;4.13;2.37;;;27.30;54.30;;;;;;5074898;28;20449;-79
2022/10/29 13:19:38;;;;;;;5.90;2.57;;;27.50;54.00;;;;;;5072986;28;20489;-78
2022/10/29 13:22:43;;;;;;;8.60;2.57;;;27.40;54.70;;;;;;5074756;28;20446;-79
2022/10/29 13:25:49;;;;;;;10.03;2.90;;;27.30;91.40;;;;;;5074242;28;20507;-79
2022/10/29 13:28:45;;;;;;;6.97;2.50;;;27.30;53.50;;;;;;5061497;28;20454;-79
2022/10/29 13:31:45;;;;;;;7.07;2.60;;;26.90;56.00;;;;;;5074432;28;20454;-79
2022/10/29 13:34:49;;;;;;;4.43;2.50;;;27.50;86.50;;;;;;5074245;28;20493;-79
2022/10/29 13:38:02;;;;;;;9.90;3.73;;;27.10;83.10;;;;;;5074249;28;20804;-79